Liberty Star — WRPH — position and weather

sailwx.info

Track history (hours):
 
Tides and Currents Weather Stations Pressure Air Temp Water Temp Dewpoint Dewpoint Depression Visibility Wind Speed Wind Dir Waves Ship Positions

Liberty Star

Owner: THIOKOL CORP, KENNEDY SPACE CENTER, FL. More information available from US FCC via Universal Licensing System and Coast Guard Vessel Documentation Center.

Last reported at 2018-Jun-22 07:08 UTC. Time now 2018-Jun-23 02:56 UTC.
Position N 41°05' W 072°52'.

Length 54 m.

Type: Other ship. MMSI: 338990000.

Date/timePositionNaut miles runAvg speedWind from/ knotsBaromVisibWave heightAir tempDewpointWater temp
2018-Jun-22 07:08N 41°05' W 072°52'310.3
2018-Jun-22 06:53N 41°06' W 072°48'410.3
2018-Jun-22 06:30N 41°07' W 072°43'5 9.9
2018-Jun-22 06:00N 41°08' W 072°37'5 9.5
2018-Jun-22 05:30N 41°09' W 072°31'4 8.9
2018-Jun-22 05:00N 41°10' W 072°25'4 8.0
2018-Jun-22 04:30N 41°11' W 072°20'4 7.2
2018-Jun-22 03:55N 41°12' W 072°14'4 7.2
2018-Jun-22 03:21N 41°13' W 072°09'98 8.2
2018-Jun-21 15:28N 42°10' W 070°23'511.6
2018-Jun-21 15:00N 42°15' W 070°22'611.5
2018-Jun-21 14:30N 42°21' W 070°21'5 9.3
2018-Jun-21 14:00N 42°26' W 070°20'1 1.5
2018-Jun-21 13:30N 42°26' W 070°20'612.5
2018-Jun-21 13:00N 42°33' W 070°19'612.5
2018-Jun-21 12:30N 42°39' W 070°17'612.1
2018-Jun-21 12:00N 42°43' W 070°12'612.2
2018-Jun-21 11:30N 42°47' W 070°05'612.4
2018-Jun-21 11:00N 42°51' W 069°59'6212.3
2018-Jun-21 05:59N 43°32' W 068°56'612.3
2018-Jun-21 05:30N 43°36' W 068°50'612.4
2018-Jun-21 04:59N 43°40' W 068°43'44 1.4
2018-Jun-19 22:41N 43°33' W 069°42'211.5
2018-Jun-19 22:29N 43°32' W 069°45'611.6
2018-Jun-19 22:00N 43°29' W 069°52'611.4
2018-Jun-19 21:30N 43°26' W 069°59'510.8
2018-Jun-19 21:00N 43°22' W 070°04'2911.2
2018-Jun-19 18:26N 42°57' W 070°22'511.6
2018-Jun-19 18:00N 42°52' W 070°23'611.7
2018-Jun-19 17:30N 42°46' W 070°26'612.1
2018-Jun-19 17:00N 42°40' W 070°26'611.8
2018-Jun-19 16:31N 42°34' W 070°27'611.7
2018-Jun-19 15:59N 42°28' W 070°25'611.7
2018-Jun-19 15:30N 42°23' W 070°23'611.5
2018-Jun-19 15:00N 42°17' W 070°21'102 3.1
2018-Jun-18 06:36N 41°14' W 072°07'410.6
2018-Jun-18 06:13N 41°12' W 072°12'310.3
2018-Jun-18 05:56N 41°12' W 072°16'4 9.9
2018-Jun-18 05:30N 41°10' W 072°22'5 9.9
2018-Jun-18 04:58N 41°08' W 072°28'510.0
2018-Jun-18 04:28N 41°07' W 072°35'510.8
2018-Jun-18 03:58N 41°06' W 072°42'6111.1
2018-Jun-17 22:29N 40°46' W 073°57'4 7.8
2018-Jun-17 22:00N 40°42' W 073°60'4 8.7
2018-Jun-17 21:31N 40°39' W 074°03'510.2
2018-Jun-17 21:00N 40°39' W 074°09'14 4.9
2018-Jun-17 18:09N 40°28' W 073°58'210.4
2018-Jun-17 18:00N 40°27' W 073°56'4810.0
2018-Jun-17 13:13N 40°35' W 072°54'311.8
2018-Jun-17 13:00N 40°36' W 072°51'611.7
2018-Jun-17 12:30N 40°38' W 072°43'811.8
2018-Jun-17 11:48N 40°40' W 072°33'611.9
2018-Jun-17 11:20N 40°42' W 072°26'34 6.5
2018-Jun-17 06:07N 41°13' W 072°08'111.2
2018-Jun-17 06:00N 41°13' W 072°10'510.5
2018-Jun-17 05:30N 41°11' W 072°16'5 9.7
2018-Jun-17 05:00N 41°10' W 072°22'5 9.3
2018-Jun-17 04:30N 41°09' W 072°28'5 9.3
2018-Jun-17 04:00N 41°07' W 072°34'510.1
2018-Jun-17 03:30N 41°06' W 072°41'510.6
2018-Jun-17 02:59N 41°05' W 072°48'  
Track history (hours):
 
Tides and Currents Weather Stations Pressure Air Temp Water Temp Dewpoint Dewpoint Depression Visibility Wind Speed Wind Dir Waves Ship Positions

Liberty Star

Owner: THIOKOL CORP, KENNEDY SPACE CENTER, FL. More information available from US FCC via Universal Licensing System and Coast Guard Vessel Documentation Center.

Last reported at 2018-Jun-22 07:08 UTC. Time now 2018-Jun-23 02:56 UTC.
Position N 41°05' W 072°52'.

Length 54 m.

Type: Other ship. MMSI: 338990000.

Date/timePositionNaut miles runAvg speedWind from/ knotsBaromVisibWave heightAir tempDewpointWater temp
2018-Jun-22 07:08N 41°05' W 072°52'310.3
2018-Jun-22 06:53N 41°06' W 072°48'410.3
2018-Jun-22 06:30N 41°07' W 072°43'5 9.9
2018-Jun-22 06:00N 41°08' W 072°37'5 9.5
2018-Jun-22 05:30N 41°09' W 072°31'4 8.9
2018-Jun-22 05:00N 41°10' W 072°25'4 8.0
2018-Jun-22 04:30N 41°11' W 072°20'4 7.2
2018-Jun-22 03:55N 41°12' W 072°14'4 7.2
2018-Jun-22 03:21N 41°13' W 072°09'98 8.2
2018-Jun-21 15:28N 42°10' W 070°23'511.6
2018-Jun-21 15:00N 42°15' W 070°22'611.5
2018-Jun-21 14:30N 42°21' W 070°21'5 9.3
2018-Jun-21 14:00N 42°26' W 070°20'1 1.5
2018-Jun-21 13:30N 42°26' W 070°20'612.5
2018-Jun-21 13:00N 42°33' W 070°19'612.5
2018-Jun-21 12:30N 42°39' W 070°17'612.1
2018-Jun-21 12:00N 42°43' W 070°12'612.2
2018-Jun-21 11:30N 42°47' W 070°05'612.4
2018-Jun-21 11:00N 42°51' W 069°59'6212.3
2018-Jun-21 05:59N 43°32' W 068°56'612.3
2018-Jun-21 05:30N 43°36' W 068°50'612.4
2018-Jun-21 04:59N 43°40' W 068°43'44 1.4
2018-Jun-19 22:41N 43°33' W 069°42'211.5
2018-Jun-19 22:29N 43°32' W 069°45'611.6
2018-Jun-19 22:00N 43°29' W 069°52'611.4
2018-Jun-19 21:30N 43°26' W 069°59'510.8
2018-Jun-19 21:00N 43°22' W 070°04'2911.2
2018-Jun-19 18:26N 42°57' W 070°22'511.6
2018-Jun-19 18:00N 42°52' W 070°23'611.7
2018-Jun-19 17:30N 42°46' W 070°26'612.1
2018-Jun-19 17:00N 42°40' W 070°26'611.8
2018-Jun-19 16:31N 42°34' W 070°27'611.7
2018-Jun-19 15:59N 42°28' W 070°25'611.7
2018-Jun-19 15:30N 42°23' W 070°23'611.5
2018-Jun-19 15:00N 42°17' W 070°21'102 3.1
2018-Jun-18 06:36N 41°14' W 072°07'410.6
2018-Jun-18 06:13N 41°12' W 072°12'310.3
2018-Jun-18 05:56N 41°12' W 072°16'4 9.9
2018-Jun-18 05:30N 41°10' W 072°22'5 9.9
2018-Jun-18 04:58N 41°08' W 072°28'510.0
2018-Jun-18 04:28N 41°07' W 072°35'510.8
2018-Jun-18 03:58N 41°06' W 072°42'6111.1
2018-Jun-17 22:29N 40°46' W 073°57'4 7.8
2018-Jun-17 22:00N 40°42' W 073°60'4 8.7
2018-Jun-17 21:31N 40°39' W 074°03'510.2
2018-Jun-17 21:00N 40°39' W 074°09'14 4.9
2018-Jun-17 18:09N 40°28' W 073°58'210.4
2018-Jun-17 18:00N 40°27' W 073°56'4810.0
2018-Jun-17 13:13N 40°35' W 072°54'311.8
2018-Jun-17 13:00N 40°36' W 072°51'611.7
2018-Jun-17 12:30N 40°38' W 072°43'811.8
2018-Jun-17 11:48N 40°40' W 072°33'611.9
2018-Jun-17 11:20N 40°42' W 072°26'34 6.5
2018-Jun-17 06:07N 41°13' W 072°08'111.2
2018-Jun-17 06:00N 41°13' W 072°10'510.5
2018-Jun-17 05:30N 41°11' W 072°16'5 9.7
2018-Jun-17 05:00N 41°10' W 072°22'5 9.3
2018-Jun-17 04:30N 41°09' W 072°28'5 9.3
2018-Jun-17 04:00N 41°07' W 072°34'510.1
2018-Jun-17 03:30N 41°06' W 072°41'510.6
2018-Jun-17 02:59N 41°05' W 072°48'  

Dump ship's entire track history